sensor_id;sensor_type;location;lat;lon;timestamp;P1;durP1;ratioP1;P2;durP2;ratioP2
43803;SDS011;29430;52.924;-2.388;2023-04-03T00:03:34;7.53;;;0.82;;
43803;SDS011;29430;52.924;-2.388;2023-04-03T00:08:27;4.05;;;0.68;;
43803;SDS011;29430;52.924;-2.388;2023-04-03T00:13:21;2.65;;;0.60;;
43803;SDS011;29430;52.924;-2.388;2023-04-03T00:18:13;6.40;;;0.60;;
43803;SDS011;29430;52.924;-2.388;2023-04-03T00:23:05;2.95;;;0.57;;
43803;SDS011;29430;52.924;-2.388;2023-04-03T00:27:57;7.65;;;0.80;;
43803;SDS011;29430;52.924;-2.388;2023-04-03T00:32:49;4.47;;;0.68;;
43803;SDS011;29430;52.924;-2.388;2023-04-03T00:37:42;2.30;;;0.50;;
43803;SDS011;29430;52.924;-2.388;2023-04-03T00:42:35;6.95;;;0.70;;
43803;SDS011;29430;52.924;-2.388;2023-04-03T00:47:28;7.03;;;0.63;;
43803;SDS011;29430;52.924;-2.388;2023-04-03T00:52:22;4.25;;;0.70;;
43803;SDS011;29430;52.924;-2.388;2023-04-03T00:57:18;4.60;;;0.60;;
43803;SDS011;29430;52.924;-2.388;2023-04-03T01:02:10;5.88;;;0.88;;
43803;SDS011;29430;52.924;-2.388;2023-04-03T01:07:04;8.63;;;0.70;;
43803;SDS011;29430;52.924;-2.388;2023-04-03T01:12:15;6.70;;;0.80;;
43803;SDS011;29430;52.924;-2.388;2023-04-03T01:17:30;6.88;;;0.80;;
43803;SDS011;29430;52.924;-2.388;2023-04-03T01:22:34;3.13;;;0.65;;
43803;SDS011;29430;52.924;-2.388;2023-04-03T01:27:41;4.93;;;0.80;;
43803;SDS011;29430;52.924;-2.388;2023-04-03T01:32:33;7.63;;;1.05;;
43803;SDS011;29430;52.924;-2.388;2023-04-03T01:37:25;4.20;;;0.82;;
43803;SDS011;29430;52.924;-2.388;2023-04-03T01:42:16;5.93;;;0.80;;
43803;SDS011;29430;52.924;-2.388;2023-04-03T01:47:08;6.57;;;1.10;;
43803;SDS011;29430;52.924;-2.388;2023-04-03T01:52:00;8.50;;;1.48;;
43803;SDS011;29430;52.924;-2.388;2023-04-03T01:56:51;8.75;;;1.05;;
43803;SDS011;29430;52.924;-2.388;2023-04-03T02:01:43;4.72;;;0.93;;
43803;SDS011;29430;52.924;-2.388;2023-04-03T02:06:36;4.53;;;0.57;;
43803;SDS011;29430;52.924;-2.388;2023-04-03T02:11:28;7.60;;;0.73;;
43803;SDS011;29430;52.924;-2.388;2023-04-03T02:16:20;4.60;;;0.95;;
43803;SDS011;29430;52.924;-2.388;2023-04-03T02:21:11;2.70;;;0.70;;
43803;SDS011;29430;52.924;-2.388;2023-04-03T02:26:04;3.83;;;0.70;;
43803;SDS011;29430;52.924;-2.388;2023-04-03T02:31:00;4.53;;;1.00;;
43803;SDS011;29430;52.924;-2.388;2023-04-03T02:35:53;9.32;;;0.85;;
43803;SDS011;29430;52.924;-2.388;2023-04-03T02:40:46;6.20;;;0.90;;
43803;SDS011;29430;52.924;-2.388;2023-04-03T02:45:38;6.00;;;0.73;;
43803;SDS011;29430;52.924;-2.388;2023-04-03T02:50:30;4.30;;;0.80;;
43803;SDS011;29430;52.924;-2.388;2023-04-03T02:55:21;6.38;;;0.80;;
43803;SDS011;29430;52.924;-2.388;2023-04-03T03:00:13;5.15;;;0.90;;
43803;SDS011;29430;52.924;-2.388;2023-04-03T03:05:06;7.65;;;0.90;;
43803;SDS011;29430;52.924;-2.388;2023-04-03T03:09:58;5.22;;;0.70;;
43803;SDS011;29430;52.924;-2.388;2023-04-03T03:14:50;6.15;;;0.90;;
43803;SDS011;29430;52.924;-2.388;2023-04-03T03:19:42;7.13;;;0.90;;
43803;SDS011;29430;52.924;-2.388;2023-04-03T03:24:34;5.38;;;0.88;;
43803;SDS011;29430;52.924;-2.388;2023-04-03T03:29:25;3.70;;;0.95;;
43803;SDS011;29430;52.924;-2.388;2023-04-03T03:34:17;4.47;;;1.25;;
43803;SDS011;29430;52.924;-2.388;2023-04-03T03:39:09;14.43;;;1.30;;
43803;SDS011;29430;52.924;-2.388;2023-04-03T03:44:01;14.40;;;1.42;;
43803;SDS011;29430;52.924;-2.388;2023-04-03T03:48:53;5.13;;;1.48;;
43803;SDS011;29430;52.924;-2.388;2023-04-03T03:53:44;7.70;;;0.80;;
43803;SDS011;29430;52.924;-2.388;2023-04-03T03:58:36;5.63;;;0.93;;
43803;SDS011;29430;52.924;-2.388;2023-04-03T04:03:28;6.35;;;0.90;;
43803;SDS011;29430;52.924;-2.388;2023-04-03T04:08:20;10.77;;;1.65;;
43803;SDS011;29430;52.924;-2.388;2023-04-03T04:13:12;4.47;;;0.80;;
43803;SDS011;29430;52.924;-2.388;2023-04-03T04:18:03;8.43;;;1.23;;
43803;SDS011;29430;52.924;-2.388;2023-04-03T04:22:55;4.82;;;0.90;;
43803;SDS011;29430;52.924;-2.388;2023-04-03T04:27:47;4.75;;;1.15;;
43803;SDS011;29430;52.924;-2.388;2023-04-03T04:32:39;6.35;;;0.85;;
43803;SDS011;29430;52.924;-2.388;2023-04-03T04:37:31;3.35;;;1.15;;
43803;SDS011;29430;52.924;-2.388;2023-04-03T04:42:22;4.40;;;0.80;;
43803;SDS011;29430;52.924;-2.388;2023-04-03T04:47:14;8.60;;;0.80;;
43803;SDS011;29430;52.924;-2.388;2023-04-03T04:52:06;9.07;;;1.00;;
43803;SDS011;29430;52.924;-2.388;2023-04-03T04:56:57;3.65;;;0.80;;
43803;SDS011;29430;52.924;-2.388;2023-04-03T05:01:49;6.90;;;1.10;;
43803;SDS011;29430;52.924;-2.388;2023-04-03T05:06:41;5.57;;;1.10;;
43803;SDS011;29430;52.924;-2.388;2023-04-03T05:11:33;7.45;;;1.30;;
43803;SDS011;29430;52.924;-2.388;2023-04-03T05:16:24;7.15;;;1.05;;
43803;SDS011;29430;52.924;-2.388;2023-04-03T05:21:16;6.68;;;0.85;;
43803;SDS011;29430;52.924;-2.388;2023-04-03T05:26:09;5.60;;;1.00;;
43803;SDS011;29430;52.924;-2.388;2023-04-03T05:31:01;5.55;;;0.82;;
43803;SDS011;29430;52.924;-2.388;2023-04-03T05:35:53;8.43;;;1.00;;
43803;SDS011;29430;52.924;-2.388;2023-04-03T05:40:46;6.55;;;1.17;;
43803;SDS011;29430;52.924;-2.388;2023-04-03T05:45:38;4.03;;;0.80;;
43803;SDS011;29430;52.924;-2.388;2023-04-03T05:50:29;9.05;;;0.95;;
43803;SDS011;29430;52.924;-2.388;2023-04-03T05:55:21;5.68;;;1.20;;
43803;SDS011;29430;52.924;-2.388;2023-04-03T06:00:13;6.63;;;1.17;;
43803;SDS011;29430;52.924;-2.388;2023-04-03T06:05:09;8.90;;;1.80;;
43803;SDS011;29430;52.924;-2.388;2023-04-03T06:10:03;5.68;;;1.02;;
43803;SDS011;29430;52.924;-2.388;2023-04-03T06:14:55;8.80;;;1.30;;
43803;SDS011;29430;52.924;-2.388;2023-04-03T06:19:47;8.43;;;1.30;;
43803;SDS011;29430;52.924;-2.388;2023-04-03T06:24:39;8.48;;;1.25;;
43803;SDS011;29430;52.924;-2.388;2023-04-03T06:29:31;3.53;;;1.00;;
43803;SDS011;29430;52.924;-2.388;2023-04-03T06:34:23;6.95;;;1.15;;
43803;SDS011;29430;52.924;-2.388;2023-04-03T06:39:16;10.63;;;1.50;;
43803;SDS011;29430;52.924;-2.388;2023-04-03T06:44:09;9.35;;;1.58;;
43803;SDS011;29430;52.924;-2.388;2023-04-03T06:49:02;6.13;;;1.50;;
43803;SDS011;29430;52.924;-2.388;2023-04-03T06:53:55;6.78;;;1.10;;
43803;SDS011;29430;52.924;-2.388;2023-04-03T06:58:49;9.02;;;1.40;;
43803;SDS011;29430;52.924;-2.388;2023-04-03T07:03:42;9.10;;;1.45;;
43803;SDS011;29430;52.924;-2.388;2023-04-03T07:08:33;9.50;;;1.17;;
43803;SDS011;29430;52.924;-2.388;2023-04-03T07:13:26;8.15;;;1.50;;
43803;SDS011;29430;52.924;-2.388;2023-04-03T07:18:18;6.30;;;1.17;;
43803;SDS011;29430;52.924;-2.388;2023-04-03T07:23:10;9.93;;;1.20;;
43803;SDS011;29430;52.924;-2.388;2023-04-03T07:28:02;7.07;;;0.90;;
43803;SDS011;29430;52.924;-2.388;2023-04-03T07:32:53;4.30;;;1.00;;
43803;SDS011;29430;52.924;-2.388;2023-04-03T07:37:45;4.50;;;1.33;;
43803;SDS011;29430;52.924;-2.388;2023-04-03T07:42:37;6.07;;;0.82;;
43803;SDS011;29430;52.924;-2.388;2023-04-03T07:47:29;8.65;;;0.70;;
43803;SDS011;29430;52.924;-2.388;2023-04-03T07:52:22;4.32;;;1.23;;
43803;SDS011;29430;52.924;-2.388;2023-04-03T07:57:15;4.18;;;0.63;;
43803;SDS011;29430;52.924;-2.388;2023-04-03T08:02:11;4.45;;;0.63;;
43803;SDS011;29430;52.924;-2.388;2023-04-03T08:07:03;8.05;;;1.13;;
43803;SDS011;29430;52.924;-2.388;2023-04-03T08:11:56;4.25;;;0.68;;
43803;SDS011;29430;52.924;-2.388;2023-04-03T08:16:47;3.92;;;0.50;;
43803;SDS011;29430;52.924;-2.388;2023-04-03T08:21:40;4.68;;;0.55;;
43803;SDS011;29430;52.924;-2.388;2023-04-03T08:26:32;5.05;;;0.52;;
43803;SDS011;29430;52.924;-2.388;2023-04-03T08:31:24;4.07;;;0.70;;
43803;SDS011;29430;52.924;-2.388;2023-04-03T08:36:20;3.88;;;0.80;;
43803;SDS011;29430;52.924;-2.388;2023-04-03T08:41:36;5.88;;;0.60;;
43803;SDS011;29430;52.924;-2.388;2023-04-03T08:46:42;6.55;;;0.63;;
43803;SDS011;29430;52.924;-2.388;2023-04-03T08:51:49;4.18;;;0.75;;
43803;SDS011;29430;52.924;-2.388;2023-04-03T08:56:42;5.18;;;0.65;;
43803;SDS011;29430;52.924;-2.388;2023-04-03T09:01:35;4.57;;;1.00;;
43803;SDS011;29430;52.924;-2.388;2023-04-03T09:06:31;7.00;;;0.50;;
43803;SDS011;29430;52.924;-2.388;2023-04-03T09:11:32;4.03;;;0.50;;
43803;SDS011;29430;52.924;-2.388;2023-04-03T09:21:39;5.97;;;0.60;;
43803;SDS011;29430;52.924;-2.388;2023-04-03T09:26:36;4.05;;;0.60;;
43803;SDS011;29430;52.924;-2.388;2023-04-03T09:31:42;4.03;;;0.50;;
43803;SDS011;29430;52.924;-2.388;2023-04-03T09:41:29;7.13;;;0.60;;
43803;SDS011;29430;52.924;-2.388;2023-04-03T09:46:31;4.88;;;0.57;;
43803;SDS011;29430;52.924;-2.388;2023-04-03T09:51:25;5.32;;;0.40;;
43803;SDS011;29430;52.924;-2.388;2023-04-03T09:56:21;3.22;;;0.45;;
43803;SDS011;29430;52.924;-2.388;2023-04-03T10:01:36;4.70;;;0.60;;
43803;SDS011;29430;52.924;-2.388;2023-04-03T10:06:30;9.23;;;0.95;;
43803;SDS011;29430;52.924;-2.388;2023-04-03T10:11:23;4.18;;;0.63;;
43803;SDS011;29430;52.924;-2.388;2023-04-03T10:16:17;6.63;;;0.60;;
43803;SDS011;29430;52.924;-2.388;2023-04-03T10:26:39;4.78;;;0.63;;
43803;SDS011;29430;52.924;-2.388;2023-04-03T10:47:13;3.83;;;0.60;;
43803;SDS011;29430;52.924;-2.388;2023-04-03T10:52:15;4.43;;;0.50;;
43803;SDS011;29430;52.924;-2.388;2023-04-03T10:57:31;6.22;;;0.40;;
43803;SDS011;29430;52.924;-2.388;2023-04-03T11:07:28;2.88;;;0.50;;
43803;SDS011;29430;52.924;-2.388;2023-04-03T11:12:29;5.20;;;0.65;;
43803;SDS011;29430;52.924;-2.388;2023-04-03T11:17:33;10.07;;;1.10;;
43803;SDS011;29430;52.924;-2.388;2023-04-03T11:27:30;2.72;;;0.40;;
43803;SDS011;29430;52.924;-2.388;2023-04-03T11:57:45;5.57;;;0.63;;
43803;SDS011;29430;52.924;-2.388;2023-04-03T12:02:53;4.55;;;0.50;;
43803;SDS011;29430;52.924;-2.388;2023-04-03T12:08:01;2.10;;;0.50;;
43803;SDS011;29430;52.924;-2.388;2023-04-03T12:13:15;5.97;;;0.40;;
43803;SDS011;29430;52.924;-2.388;2023-04-03T12:23:35;5.68;;;0.40;;
43803;SDS011;29430;52.924;-2.388;2023-04-03T12:28:29;4.07;;;0.50;;
43803;SDS011;29430;52.924;-2.388;2023-04-03T12:33:30;3.13;;;0.40;;
43803;SDS011;29430;52.924;-2.388;2023-04-03T12:38:45;2.72;;;0.50;;
43803;SDS011;29430;52.924;-2.388;2023-04-03T13:04:12;1.52;;;0.45;;
43803;SDS011;29430;52.924;-2.388;2023-04-03T13:09:04;6.75;;;0.60;;
43803;SDS011;29430;52.924;-2.388;2023-04-03T13:13:58;4.05;;;0.50;;
43803;SDS011;29430;52.924;-2.388;2023-04-03T13:18:53;3.65;;;0.60;;
43803;SDS011;29430;52.924;-2.388;2023-04-03T13:23:47;4.03;;;0.43;;
43803;SDS011;29430;52.924;-2.388;2023-04-03T13:28:47;6.00;;;0.47;;
43803;SDS011;29430;52.924;-2.388;2023-04-03T13:54:21;7.32;;;0.47;;
43803;SDS011;29430;52.924;-2.388;2023-04-03T14:04:24;6.97;;;0.60;;
43803;SDS011;29430;52.924;-2.388;2023-04-03T14:09:19;2.38;;;0.60;;
43803;SDS011;29430;52.924;-2.388;2023-04-03T14:14:15;5.88;;;0.57;;
43803;SDS011;29430;52.924;-2.388;2023-04-03T14:19:23;3.70;;;0.60;;
43803;SDS011;29430;52.924;-2.388;2023-04-03T14:24:17;2.63;;;0.43;;
43803;SDS011;29430;52.924;-2.388;2023-04-03T14:29:09;5.45;;;0.60;;
43803;SDS011;29430;52.924;-2.388;2023-04-03T14:34:02;5.00;;;0.50;;
43803;SDS011;29430;52.924;-2.388;2023-04-03T14:38:54;2.92;;;0.90;;
43803;SDS011;29430;52.924;-2.388;2023-04-03T14:43:46;4.65;;;0.63;;
43803;SDS011;29430;52.924;-2.388;2023-04-03T14:48:38;5.75;;;0.60;;
43803;SDS011;29430;52.924;-2.388;2023-04-03T14:53:30;1.85;;;0.50;;
43803;SDS011;29430;52.924;-2.388;2023-04-03T14:58:29;4.38;;;0.60;;
43803;SDS011;29430;52.924;-2.388;2023-04-03T15:03:21;5.43;;;0.90;;
43803;SDS011;29430;52.924;-2.388;2023-04-03T15:08:18;4.03;;;0.75;;
43803;SDS011;29430;52.924;-2.388;2023-04-03T15:18:04;5.10;;;0.50;;
43803;SDS011;29430;52.924;-2.388;2023-04-03T15:22:56;3.53;;;0.65;;
43803;SDS011;29430;52.924;-2.388;2023-04-03T15:27:48;4.85;;;0.60;;
43803;SDS011;29430;52.924;-2.388;2023-04-03T15:32:40;4.82;;;0.70;;
43803;SDS011;29430;52.924;-2.388;2023-04-03T15:37:32;4.75;;;0.57;;
43803;SDS011;29430;52.924;-2.388;2023-04-03T15:42:24;3.15;;;0.70;;
43803;SDS011;29430;52.924;-2.388;2023-04-03T15:47:15;3.95;;;0.55;;
43803;SDS011;29430;52.924;-2.388;2023-04-03T15:52:08;5.95;;;0.60;;
43803;SDS011;29430;52.924;-2.388;2023-04-03T15:56:59;2.15;;;0.50;;
43803;SDS011;29430;52.924;-2.388;2023-04-03T16:01:51;2.65;;;0.60;;
43803;SDS011;29430;52.924;-2.388;2023-04-03T16:06:44;3.42;;;0.50;;
43803;SDS011;29430;52.924;-2.388;2023-04-03T16:11:37;2.15;;;0.50;;
43803;SDS011;29430;52.924;-2.388;2023-04-03T16:16:31;2.63;;;0.50;;
43803;SDS011;29430;52.924;-2.388;2023-04-03T16:21:23;3.17;;;0.60;;
43803;SDS011;29430;52.924;-2.388;2023-04-03T16:26:15;3.22;;;0.50;;
43803;SDS011;29430;52.924;-2.388;2023-04-03T16:31:08;3.92;;;0.57;;
43803;SDS011;29430;52.924;-2.388;2023-04-03T16:36:00;2.90;;;0.52;;
43803;SDS011;29430;52.924;-2.388;2023-04-03T16:40:52;3.88;;;0.70;;
43803;SDS011;29430;52.924;-2.388;2023-04-03T16:45:48;3.85;;;0.50;;
43803;SDS011;29430;52.924;-2.388;2023-04-03T16:50:39;6.38;;;0.60;;
43803;SDS011;29430;52.924;-2.388;2023-04-03T16:55:31;5.35;;;0.60;;
43803;SDS011;29430;52.924;-2.388;2023-04-03T17:00:23;2.45;;;0.50;;
43803;SDS011;29430;52.924;-2.388;2023-04-03T17:05:14;4.40;;;0.60;;
43803;SDS011;29430;52.924;-2.388;2023-04-03T17:10:06;3.97;;;0.50;;
43803;SDS011;29430;52.924;-2.388;2023-04-03T17:14:58;7.85;;;0.70;;
43803;SDS011;29430;52.924;-2.388;2023-04-03T17:19:50;6.13;;;0.85;;
43803;SDS011;29430;52.924;-2.388;2023-04-03T17:24:42;2.60;;;0.50;;
43803;SDS011;29430;52.924;-2.388;2023-04-03T17:29:34;3.38;;;0.60;;
43803;SDS011;29430;52.924;-2.388;2023-04-03T17:34:26;4.25;;;0.70;;
43803;SDS011;29430;52.924;-2.388;2023-04-03T17:39:18;4.97;;;0.98;;
43803;SDS011;29430;52.924;-2.388;2023-04-03T17:44:10;3.75;;;0.60;;
43803;SDS011;29430;52.924;-2.388;2023-04-03T17:49:02;4.80;;;0.88;;
43803;SDS011;29430;52.924;-2.388;2023-04-03T17:53:55;3.88;;;1.25;;
43803;SDS011;29430;52.924;-2.388;2023-04-03T17:58:46;4.20;;;0.77;;
43803;SDS011;29430;52.924;-2.388;2023-04-03T18:03:39;3.28;;;0.60;;
43803;SDS011;29430;52.924;-2.388;2023-04-03T18:08:32;2.78;;;0.80;;
43803;SDS011;29430;52.924;-2.388;2023-04-03T18:13:27;7.38;;;1.17;;
43803;SDS011;29430;52.924;-2.388;2023-04-03T18:18:19;4.40;;;0.82;;
43803;SDS011;29430;52.924;-2.388;2023-04-03T18:23:11;3.72;;;0.90;;
43803;SDS011;29430;52.924;-2.388;2023-04-03T18:28:03;3.13;;;0.70;;
43803;SDS011;29430;52.924;-2.388;2023-04-03T18:32:56;3.50;;;0.80;;
43803;SDS011;29430;52.924;-2.388;2023-04-03T18:37:49;3.58;;;0.80;;
43803;SDS011;29430;52.924;-2.388;2023-04-03T18:42:40;6.25;;;0.80;;
43803;SDS011;29430;52.924;-2.388;2023-04-03T18:47:33;5.15;;;0.70;;
43803;SDS011;29430;52.924;-2.388;2023-04-03T18:52:27;3.22;;;1.08;;
43803;SDS011;29430;52.924;-2.388;2023-04-03T18:57:18;5.38;;;1.25;;
43803;SDS011;29430;52.924;-2.388;2023-04-03T19:02:10;5.05;;;1.42;;
43803;SDS011;29430;52.924;-2.388;2023-04-03T19:07:03;4.50;;;1.23;;
43803;SDS011;29430;52.924;-2.388;2023-04-03T19:11:56;12.55;;;3.78;;
43803;SDS011;29430;52.924;-2.388;2023-04-03T19:16:48;8.00;;;2.08;;
43803;SDS011;29430;52.924;-2.388;2023-04-03T19:21:40;7.28;;;1.63;;
43803;SDS011;29430;52.924;-2.388;2023-04-03T19:26:32;3.05;;;0.80;;
43803;SDS011;29430;52.924;-2.388;2023-04-03T19:31:24;4.25;;;1.05;;
43803;SDS011;29430;52.924;-2.388;2023-04-03T19:36:16;3.22;;;0.90;;
43803;SDS011;29430;52.924;-2.388;2023-04-03T19:41:13;3.22;;;0.82;;
43803;SDS011;29430;52.924;-2.388;2023-04-03T19:46:09;4.07;;;0.80;;
43803;SDS011;29430;52.924;-2.388;2023-04-03T19:51:01;4.75;;;1.00;;
43803;SDS011;29430;52.924;-2.388;2023-04-03T19:55:55;3.20;;;0.80;;
43803;SDS011;29430;52.924;-2.388;2023-04-03T20:00:47;3.67;;;0.93;;
43803;SDS011;29430;52.924;-2.388;2023-04-03T20:05:39;8.35;;;1.50;;
43803;SDS011;29430;52.924;-2.388;2023-04-03T20:10:31;5.43;;;1.10;;
43803;SDS011;29430;52.924;-2.388;2023-04-03T20:15:23;3.45;;;0.80;;
43803;SDS011;29430;52.924;-2.388;2023-04-03T20:20:16;7.38;;;0.90;;
43803;SDS011;29430;52.924;-2.388;2023-04-03T20:25:10;3.22;;;1.17;;
43803;SDS011;29430;52.924;-2.388;2023-04-03T20:30:09;3.80;;;0.70;;
43803;SDS011;29430;52.924;-2.388;2023-04-03T20:35:03;5.38;;;0.85;;
43803;SDS011;29430;52.924;-2.388;2023-04-03T20:39:55;4.47;;;0.90;;
43803;SDS011;29430;52.924;-2.388;2023-04-03T20:44:47;5.03;;;1.20;;
43803;SDS011;29430;52.924;-2.388;2023-04-03T20:49:38;3.67;;;1.00;;
43803;SDS011;29430;52.924;-2.388;2023-04-03T20:54:33;4.32;;;1.20;;
43803;SDS011;29430;52.924;-2.388;2023-04-03T20:59:25;2.72;;;0.93;;
43803;SDS011;29430;52.924;-2.388;2023-04-03T21:20:16;7.07;;;1.52;;
43803;SDS011;29430;52.924;-2.388;2023-04-03T21:25:08;6.25;;;1.38;;
43803;SDS011;29430;52.924;-2.388;2023-04-03T21:30:00;6.68;;;1.73;;
43803;SDS011;29430;52.924;-2.388;2023-04-03T21:34:55;5.38;;;1.25;;
43803;SDS011;29430;52.924;-2.388;2023-04-03T21:39:48;6.82;;;1.52;;
43803;SDS011;29430;52.924;-2.388;2023-04-03T21:44:40;5.78;;;1.33;;
43803;SDS011;29430;52.924;-2.388;2023-04-03T21:49:31;5.35;;;2.20;;
43803;SDS011;29430;52.924;-2.388;2023-04-03T21:54:24;6.70;;;1.85;;
43803;SDS011;29430;52.924;-2.388;2023-04-03T21:59:15;4.22;;;1.52;;
43803;SDS011;29430;52.924;-2.388;2023-04-03T22:04:07;4.05;;;1.25;;
43803;SDS011;29430;52.924;-2.388;2023-04-03T22:08:59;4.30;;;1.58;;
43803;SDS011;29430;52.924;-2.388;2023-04-03T22:13:51;3.35;;;1.13;;
43803;SDS011;29430;52.924;-2.388;2023-04-03T22:18:44;3.42;;;1.25;;
43803;SDS011;29430;52.924;-2.388;2023-04-03T22:23:36;3.13;;;1.50;;
43803;SDS011;29430;52.924;-2.388;2023-04-03T22:28:28;5.05;;;1.65;;
43803;SDS011;29430;52.924;-2.388;2023-04-03T22:33:22;5.70;;;1.75;;
43803;SDS011;29430;52.924;-2.388;2023-04-03T22:38:14;7.05;;;1.70;;
43803;SDS011;29430;52.924;-2.388;2023-04-03T22:43:06;5.82;;;2.65;;
43803;SDS011;29430;52.924;-2.388;2023-04-03T22:47:58;7.20;;;2.70;;
43803;SDS011;29430;52.924;-2.388;2023-04-03T22:52:50;6.95;;;2.92;;
43803;SDS011;29430;52.924;-2.388;2023-04-03T22:57:48;10.38;;;2.80;;
43803;SDS011;29430;52.924;-2.388;2023-04-03T23:02:39;7.53;;;2.50;;
43803;SDS011;29430;52.924;-2.388;2023-04-03T23:07:32;7.25;;;2.50;;
43803;SDS011;29430;52.924;-2.388;2023-04-03T23:12:24;11.43;;;3.35;;
43803;SDS011;29430;52.924;-2.388;2023-04-03T23:17:16;8.45;;;2.95;;
43803;SDS011;29430;52.924;-2.388;2023-04-03T23:22:07;5.75;;;2.60;;
43803;SDS011;29430;52.924;-2.388;2023-04-03T23:26:59;6.82;;;2.70;;
43803;SDS011;29430;52.924;-2.388;2023-04-03T23:31:51;6.30;;;2.95;;
43803;SDS011;29430;52.924;-2.388;2023-04-03T23:36:43;9.93;;;3.55;;
43803;SDS011;29430;52.924;-2.388;2023-04-03T23:41:34;9.27;;;3.30;;
43803;SDS011;29430;52.924;-2.388;2023-04-03T23:46:26;6.03;;;2.63;;
43803;SDS011;29430;52.924;-2.388;2023-04-03T23:51:18;8.25;;;4.00;;
43803;SDS011;29430;52.924;-2.388;2023-04-03T23:56:10;6.28;;;2.85;;
